createdAt,value
2019-03-10T00:01:49.603Z,4.40
2019-03-10T00:06:54.260Z,3.77
2019-03-10T00:11:59.006Z,4.27
2019-03-10T00:17:03.651Z,3.50
2019-03-10T00:22:08.448Z,4.27
2019-03-10T00:27:13.382Z,4.23
2019-03-10T00:32:17.986Z,4.93
2019-03-10T00:37:22.690Z,4.67
2019-03-10T00:43:17.111Z,4.03
2019-03-10T00:48:40.367Z,3.67
2019-03-10T00:53:45.195Z,4.17
2019-03-10T00:58:49.852Z,4.63
2019-03-10T01:03:54.515Z,4.73
2019-03-10T01:08:59.155Z,4.70
2019-03-10T01:14:03.789Z,5.00
2019-03-10T01:19:08.474Z,5.90
2019-03-10T01:24:13.402Z,5.97
2019-03-10T01:29:18.122Z,5.77
2019-03-10T01:34:45.048Z,5.03
2019-03-10T01:39:49.735Z,4.83
2019-03-10T01:44:54.323Z,5.07
2019-03-10T01:49:58.854Z,7.00
2019-03-10T01:55:03.775Z,5.53
2019-03-10T02:00:10.508Z,6.40
2019-03-10T02:05:15.202Z,6.60
2019-03-10T02:10:20.090Z,6.47
2019-03-10T02:15:24.750Z,6.17
2019-03-10T02:20:29.416Z,7.43
2019-03-10T02:25:34.163Z,6.00
2019-03-10T02:30:38.831Z,5.60
2019-03-10T02:35:43.841Z,5.80
2019-03-10T02:40:48.609Z,5.50
2019-03-10T02:45:53.267Z,5.83
2019-03-10T02:50:57.872Z,5.37
2019-03-10T02:56:02.471Z,4.93
2019-03-10T03:01:07.128Z,4.87
2019-03-10T03:06:11.901Z,5.00
2019-03-10T03:11:16.530Z,5.97
2019-03-10T03:16:21.358Z,5.00
2019-03-10T03:21:25.982Z,4.60
2019-03-10T03:26:30.815Z,5.50
2019-03-10T03:31:35.607Z,5.20
2019-03-10T03:36:42.321Z,4.87
2019-03-10T03:41:46.897Z,4.93
2019-03-10T03:46:51.749Z,4.07
2019-03-10T03:51:56.427Z,4.07
2019-03-10T03:57:01.568Z,3.80
2019-03-10T04:02:13.440Z,4.17
2019-03-10T04:07:18.287Z,3.47
2019-03-10T04:12:22.998Z,3.93
2019-03-10T04:17:27.603Z,2.93
2019-03-10T04:22:32.208Z,3.60
2019-03-10T04:27:36.915Z,2.83
2019-03-10T04:32:41.786Z,2.60
2019-03-10T04:37:46.527Z,3.13
2019-03-10T04:42:51.418Z,3.33
2019-03-10T04:47:56.714Z,2.67
2019-03-10T04:53:01.375Z,3.07
2019-03-10T04:58:08.487Z,3.20
2019-03-10T05:03:13.178Z,2.63
2019-03-10T05:08:17.961Z,3.73
2019-03-10T05:13:22.673Z,3.20
2019-03-10T05:18:27.517Z,4.63
2019-03-10T05:23:40.090Z,3.97
2019-03-10T05:28:46.695Z,3.07
2019-03-10T05:33:51.797Z,3.50
2019-03-10T05:38:56.574Z,4.20
2019-03-10T05:44:01.214Z,3.53
2019-03-10T05:49:06.260Z,3.63
2019-03-10T05:54:10.987Z,3.67
2019-03-10T05:59:15.798Z,3.80
2019-03-10T06:04:20.605Z,4.50
2019-03-10T06:09:25.377Z,5.23
2019-03-10T06:14:30.295Z,3.63
2019-03-10T06:19:35.098Z,2.97
2019-03-10T06:24:39.998Z,2.50
2019-03-10T06:29:44.667Z,2.77
2019-03-10T06:34:49.302Z,3.57
2019-03-10T06:39:54.337Z,2.87
2019-03-10T06:44:59.268Z,2.83
2019-03-10T06:50:04.566Z,3.03
2019-03-10T06:55:09.226Z,2.60
2019-03-10T07:00:14.214Z,3.00
2019-03-10T07:05:19.354Z,2.90
2019-03-10T07:10:24.629Z,2.90
2019-03-10T07:15:29.752Z,2.30
2019-03-10T07:20:35.019Z,3.13
2019-03-10T07:25:39.785Z,2.90
2019-03-10T07:30:53.731Z,2.03
2019-03-10T07:36:24.106Z,3.10
2019-03-10T07:42:03.472Z,2.13
2019-03-10T07:47:24.315Z,2.10
2019-03-10T07:52:54.102Z,2.27
2019-03-10T07:58:13.892Z,2.03
2019-03-10T08:03:56.347Z,2.00
2019-03-10T08:09:09.020Z,1.73
2019-03-10T08:14:23.315Z,1.70
2019-03-10T08:19:46.102Z,1.57
2019-03-10T08:25:22.462Z,1.77
2019-03-10T08:30:45.308Z,1.80
2019-03-10T08:36:13.823Z,1.53
2019-03-10T08:41:26.143Z,1.07
2019-03-10T08:46:51.798Z,2.17
2019-03-10T08:52:06.725Z,1.50
2019-03-10T08:57:22.497Z,1.40
2019-03-10T09:02:38.135Z,1.97
2019-03-10T09:08:08.583Z,1.47
2019-03-10T09:13:24.011Z,2.00
2019-03-10T09:18:51.783Z,2.30
2019-03-10T09:24:08.555Z,2.50
2019-03-10T09:29:22.741Z,2.70
2019-03-10T09:34:55.971Z,2.40
2019-03-10T09:40:11.383Z,2.77
2019-03-10T09:45:55.685Z,2.63
2019-03-10T09:51:10.043Z,3.20
2019-03-10T09:56:34.108Z,3.43
2019-03-10T10:01:57.884Z,2.77
2019-03-10T10:07:12.347Z,4.20
2019-03-10T10:12:28.131Z,4.30
2019-03-10T10:17:55.063Z,3.40
2019-03-10T10:23:22.986Z,3.40
2019-03-10T10:28:36.652Z,3.83
2019-03-10T10:34:15.718Z,3.70
2019-03-10T10:39:35.215Z,2.37
2019-03-10T10:45:04.615Z,2.33
2019-03-10T10:50:27.699Z,1.77
2019-03-10T10:55:48.302Z,2.87
2019-03-10T11:01:02.079Z,2.37
2019-03-10T11:06:12.226Z,2.50
2019-03-10T11:11:34.716Z,2.47
2019-03-10T11:16:59.439Z,2.80
2019-03-10T11:22:19.967Z,2.90
2019-03-10T11:27:32.118Z,3.60
2019-03-10T11:33:02.051Z,2.53
2019-03-10T11:38:32.038Z,3.77
2019-03-10T11:43:51.338Z,4.60
2019-03-10T11:49:18.617Z,3.53
2019-03-10T11:54:42.647Z,3.40
2019-03-10T12:00:07.223Z,2.70
2019-03-10T12:05:29.826Z,3.17
2019-03-10T12:10:34.463Z,3.43
2019-03-10T12:15:39.087Z,3.30
2019-03-10T12:20:43.806Z,4.13
2019-03-10T12:25:48.457Z,3.80
2019-03-10T12:30:56.367Z,2.83
2019-03-10T12:36:01.335Z,3.67
2019-03-10T12:41:05.972Z,2.67
2019-03-10T12:46:10.605Z,2.57
2019-03-10T12:51:16.166Z,3.00
2019-03-10T12:56:21.206Z,2.23
2019-03-10T13:01:25.984Z,3.37
2019-03-10T13:06:31.027Z,2.17
2019-03-10T13:11:35.740Z,2.47
2019-03-10T13:16:40.761Z,2.70
2019-03-10T13:21:45.742Z,3.53
2019-03-10T13:26:52.815Z,3.23
2019-03-10T13:31:57.851Z,3.93
2019-03-10T13:37:02.590Z,2.53
2019-03-10T13:42:07.518Z,3.13
2019-03-10T13:47:12.237Z,2.33
2019-03-10T13:52:16.897Z,2.17
2019-03-10T13:57:21.682Z,1.73
2019-03-10T14:02:26.219Z,1.60
2019-03-10T14:07:31.446Z,2.50
2019-03-10T14:12:38.042Z,2.60
2019-03-10T14:17:42.924Z,1.93
2019-03-10T14:22:47.744Z,1.33
2019-03-10T14:27:52.346Z,2.10
2019-03-10T14:32:56.987Z,2.60
2019-03-10T14:38:01.951Z,3.87
2019-03-10T14:43:06.907Z,2.70
2019-03-10T14:48:11.756Z,3.87
2019-03-10T14:53:16.462Z,3.43
2019-03-10T14:58:21.401Z,2.20
2019-03-10T15:03:26.057Z,3.37
2019-03-10T15:08:31.862Z,2.47
2019-03-10T15:13:36.414Z,2.00
2019-03-10T15:18:41.104Z,1.87
2019-03-10T15:23:45.650Z,1.60
2019-03-10T15:28:50.685Z,1.70
2019-03-10T15:33:55.438Z,1.10
2019-03-10T15:39:00.063Z,1.00
2019-03-10T15:44:04.689Z,0.80
2019-03-10T15:49:09.325Z,0.63
2019-03-10T15:54:14.426Z,0.87
2019-03-10T15:59:19.163Z,1.00
2019-03-10T16:04:24.014Z,0.97
2019-03-10T16:09:28.782Z,0.90
2019-03-10T16:14:33.326Z,0.50
2019-03-10T16:19:37.455Z,0.57
2019-03-10T16:24:42.000Z,0.60
2019-03-10T16:29:46.648Z,0.47
2019-03-10T16:34:50.955Z,0.70
2019-03-10T16:39:55.467Z,0.60
2019-03-10T16:44:59.902Z,0.60
2019-03-10T16:50:05.419Z,0.77
2019-03-10T16:55:10.441Z,0.70
2019-03-10T17:00:16.596Z,0.73
2019-03-10T17:05:21.361Z,0.73
2019-03-10T17:10:27.049Z,0.60
2019-03-10T17:15:31.709Z,0.67
2019-03-10T17:20:38.715Z,0.70
2019-03-10T17:25:43.527Z,0.90
2019-03-10T17:30:48.487Z,0.90
2019-03-10T17:35:53.006Z,1.23
2019-03-10T17:40:57.686Z,1.33
2019-03-10T17:46:02.723Z,1.70
2019-03-10T17:51:07.375Z,1.77
2019-03-10T17:56:11.974Z,1.47
2019-03-10T18:01:16.712Z,1.30
2019-03-10T18:06:21.491Z,1.40
2019-03-10T18:11:26.364Z,1.80
2019-03-10T18:16:33.372Z,1.67
2019-03-10T18:21:37.491Z,1.23
2019-03-10T18:26:42.442Z,1.80
2019-03-10T18:31:47.090Z,1.43
2019-03-10T18:36:51.645Z,1.43
2019-03-10T18:41:55.631Z,1.40
2019-03-10T18:46:59.530Z,1.30
2019-03-10T18:52:03.597Z,1.20
2019-03-10T18:57:08.280Z,1.30
2019-03-10T19:02:12.878Z,1.10
2019-03-10T19:07:17.491Z,1.10
2019-03-10T19:12:22.104Z,0.87
2019-03-10T19:17:26.762Z,1.10
2019-03-10T19:22:31.363Z,1.00
2019-03-10T19:27:36.494Z,1.23
2019-03-10T19:32:41.270Z,1.40
2019-03-10T19:37:46.858Z,1.40
2019-03-10T19:42:51.598Z,1.23
2019-03-10T19:47:56.270Z,1.00
2019-03-10T19:53:01.210Z,1.50
2019-03-10T19:58:05.866Z,1.30
2019-03-10T20:03:10.641Z,1.43
2019-03-10T20:08:14.978Z,1.10
2019-03-10T20:13:21.442Z,1.10
2019-03-10T20:18:25.712Z,1.07
2019-03-10T20:23:31.283Z,0.93
2019-03-10T20:28:35.925Z,0.70
2019-03-10T20:33:40.601Z,0.90
2019-03-10T20:38:45.806Z,0.93
2019-03-10T20:43:50.460Z,1.30
2019-03-10T20:48:55.626Z,1.20
2019-03-10T20:54:00.282Z,1.37
2019-03-10T20:59:05.085Z,1.70
2019-03-10T21:04:09.910Z,1.13
2019-03-10T21:09:14.839Z,1.53
2019-03-10T21:14:19.459Z,1.80
2019-03-10T21:19:24.348Z,1.87
2019-03-10T21:24:30.454Z,2.22
2019-03-10T21:29:35.227Z,2.90
2019-03-10T21:34:40.386Z,2.47
2019-03-10T21:39:45.119Z,2.57
2019-03-10T21:44:49.764Z,2.50
2019-03-10T21:49:55.629Z,3.10
2019-03-10T21:55:01.066Z,2.90
2019-03-10T22:00:07.118Z,2.80
2019-03-10T22:05:12.501Z,2.10
2019-03-10T22:10:26.255Z,2.27
2019-03-10T22:15:24.298Z,2.37
2019-03-10T22:20:29.288Z,2.63
2019-03-10T22:25:34.584Z,2.17
2019-03-10T22:30:38.739Z,1.97
2019-03-10T22:35:42.827Z,2.43
2019-03-10T22:40:47.450Z,2.03
2019-03-10T22:45:52.412Z,1.67
2019-03-10T22:50:57.095Z,2.33
2019-03-10T22:56:02.106Z,2.53
2019-03-10T23:01:06.852Z,3.50
2019-03-10T23:06:11.531Z,2.80
2019-03-10T23:11:16.947Z,3.47
2019-03-10T23:16:21.623Z,3.03
2019-03-10T23:21:26.334Z,2.40
2019-03-10T23:26:31.115Z,3.90
2019-03-10T23:31:35.914Z,2.60
2019-03-10T23:36:40.698Z,2.40
2019-03-10T23:41:52.631Z,1.87
2019-03-10T23:46:57.578Z,1.97
2019-03-10T23:52:02.731Z,3.97
2019-03-10T23:57:07.795Z,3.77
